createdAt,value
2019-02-09T00:04:25.539Z,83.00
2019-02-09T00:06:54.111Z,83.17
2019-02-09T00:09:22.722Z,82.89
2019-02-09T00:11:51.356Z,82.91
2019-02-09T00:14:19.973Z,82.50
2019-02-09T00:16:48.568Z,83.17
2019-02-09T00:19:17.125Z,82.67
2019-02-09T00:21:46.132Z,82.44
2019-02-09T00:24:14.676Z,82.24
2019-02-09T00:26:43.630Z,82.45
2019-02-09T00:29:12.194Z,82.31
2019-02-09T00:31:40.765Z,82.29
2019-02-09T00:34:09.549Z,82.60
2019-02-09T00:36:38.113Z,82.60
2019-02-09T00:39:08.021Z,82.36
2019-02-09T00:41:36.597Z,82.49
2019-02-09T00:44:05.569Z,82.53
2019-02-09T00:46:34.236Z,82.33
2019-02-09T00:49:02.842Z,82.36
2019-02-09T00:51:31.424Z,82.02
2019-02-09T00:54:02.020Z,81.67
2019-02-09T00:56:32.357Z,81.59
2019-02-09T00:59:01.007Z,81.59
2019-02-09T01:01:29.717Z,81.76
2019-02-09T01:03:58.262Z,81.97
2019-02-09T01:06:26.909Z,81.58
2019-02-09T01:08:55.458Z,81.66
2019-02-09T01:11:24.051Z,81.74
2019-02-09T01:13:52.603Z,81.39
2019-02-09T01:16:21.183Z,80.97
2019-02-09T01:18:50.053Z,81.04
2019-02-09T01:21:18.737Z,81.35
2019-02-09T01:23:47.288Z,80.75
2019-02-09T01:26:16.222Z,80.80
2019-02-09T01:28:44.801Z,80.36
2019-02-09T01:31:13.383Z,80.36
2019-02-09T01:33:42.042Z,80.61
2019-02-09T01:36:10.755Z,79.80
2019-02-09T01:38:39.312Z,80.45
2019-02-09T01:41:07.894Z,79.71
2019-02-09T01:43:36.476Z,79.67
2019-02-09T01:46:05.250Z,79.72
2019-02-09T01:48:33.822Z,79.40
2019-02-09T01:51:05.378Z,79.09
2019-02-09T01:53:34.314Z,78.84
2019-02-09T01:56:02.952Z,79.13
2019-02-09T01:58:31.599Z,78.86
2019-02-09T02:01:00.569Z,78.11
2019-02-09T02:03:30.840Z,78.38
2019-02-09T02:06:00.754Z,78.58
2019-02-09T02:08:31.223Z,78.39
2019-02-09T02:10:59.800Z,78.44
2019-02-09T02:13:28.777Z,78.23
2019-02-09T02:15:57.312Z,78.17
2019-02-09T02:18:26.301Z,78.36
2019-02-09T02:20:54.920Z,77.61
2019-02-09T02:23:23.493Z,77.19
2019-02-09T02:25:52.363Z,77.50
2019-02-09T02:28:20.942Z,77.82
2019-02-09T02:30:49.908Z,77.46
2019-02-09T02:33:18.484Z,77.25
2019-02-09T02:35:47.435Z,77.25
2019-02-09T02:38:16.019Z,77.42
2019-02-09T02:40:44.579Z,77.53
2019-02-09T02:43:13.146Z,77.47
2019-02-09T02:45:41.710Z,77.36
2019-02-09T02:48:10.349Z,77.36
2019-02-09T02:50:38.904Z,77.10
2019-02-09T02:53:10.583Z,77.62
2019-02-09T02:55:39.145Z,77.41
2019-02-09T02:58:07.715Z,77.39
2019-02-09T03:00:36.335Z,77.51
2019-02-09T03:03:05.545Z,77.51
2019-02-09T03:05:34.101Z,77.02
2019-02-09T03:08:02.859Z,77.59
2019-02-09T03:10:31.514Z,77.59
2019-02-09T03:13:03.195Z,77.58
2019-02-09T03:15:33.175Z,77.18
2019-02-09T03:18:03.273Z,76.81
2019-02-09T03:20:35.288Z,76.45
2019-02-09T03:23:03.935Z,76.99
2019-02-09T03:25:36.361Z,76.13
2019-02-09T03:28:05.402Z,75.51
2019-02-09T03:30:47.187Z,75.19
2019-02-09T03:33:04.711Z,75.52
2019-02-09T03:35:35.929Z,74.61
2019-02-09T03:38:04.920Z,74.28
2019-02-09T03:40:33.469Z,74.06
2019-02-09T03:43:02.030Z,73.37
2019-02-09T03:45:51.369Z,72.60
2019-02-09T03:48:20.272Z,72.60
2019-02-09T03:50:48.853Z,73.53
2019-02-09T03:53:17.413Z,73.23
2019-02-09T03:55:45.966Z,73.21
2019-02-09T03:58:14.546Z,73.21
2019-02-09T04:00:43.406Z,73.10
2019-02-09T04:03:12.224Z,72.63
2019-02-09T04:05:40.768Z,72.76
2019-02-09T04:08:09.890Z,72.77
2019-02-09T04:10:38.439Z,72.12
2019-02-09T04:13:07.004Z,72.08
2019-02-09T04:15:35.710Z,71.40
2019-02-09T04:18:04.422Z,72.00
2019-02-09T04:20:33.420Z,70.76
2019-02-09T04:23:02.061Z,70.76
2019-02-09T04:25:32.247Z,70.60
2019-02-09T04:28:00.807Z,70.52
2019-02-09T04:30:33.256Z,70.57
2019-02-09T04:33:04.868Z,70.20
2019-02-09T04:35:33.787Z,70.20
2019-02-09T04:38:04.185Z,69.99
2019-02-09T04:40:33.320Z,69.97
2019-02-09T04:43:04.865Z,69.47
2019-02-09T04:45:33.436Z,69.96
2019-02-09T04:48:05.006Z,70.03
2019-02-09T04:50:33.619Z,69.23
2019-02-09T04:53:02.177Z,69.23
2019-02-09T04:55:32.398Z,69.03
2019-02-09T04:58:00.951Z,69.11
2019-02-09T05:00:33.131Z,69.11
2019-02-09T05:03:05.088Z,69.22
2019-02-09T05:05:33.613Z,69.23
2019-02-09T05:08:02.166Z,69.32
2019-02-09T05:10:32.373Z,68.99
2019-02-09T05:13:01.276Z,68.98
2019-02-09T05:15:32.271Z,68.59
2019-02-09T05:18:01.115Z,68.29
2019-02-09T05:20:29.691Z,67.50
2019-02-09T05:22:58.305Z,67.50
2019-02-09T05:25:26.895Z,67.99
2019-02-09T05:27:55.439Z,66.60
2019-02-09T05:30:28.837Z,67.64
2019-02-09T05:32:57.820Z,67.64
2019-02-09T05:35:26.449Z,67.20
2019-02-09T05:37:55.176Z,66.39
2019-02-09T05:40:27.620Z,66.39
2019-02-09T05:42:56.443Z,66.44
2019-02-09T05:45:27.624Z,66.11
2019-02-09T05:47:56.353Z,66.48
2019-02-09T05:50:24.962Z,65.57
2019-02-09T05:52:53.581Z,65.57
2019-02-09T05:55:22.584Z,66.71
2019-02-09T05:57:51.125Z,66.71
2019-02-09T06:00:32.284Z,67.34
2019-02-09T06:03:01.136Z,66.57
2019-02-09T06:05:29.873Z,66.88
2019-02-09T06:07:58.832Z,67.00
2019-02-09T06:10:27.614Z,67.44
2019-02-09T06:12:56.625Z,68.41
2019-02-09T06:15:29.714Z,69.25
2019-02-09T06:17:58.441Z,70.50
2019-02-09T06:20:31.490Z,72.70
2019-02-09T06:23:03.212Z,72.70
2019-02-09T06:25:33.787Z,73.57
2019-02-09T06:28:04.379Z,75.92
2019-02-09T06:30:33.497Z,75.93
2019-02-09T06:33:02.493Z,77.78
2019-02-09T06:35:34.523Z,78.73
2019-02-09T06:38:03.358Z,79.79
2019-02-09T06:40:32.003Z,81.38
2019-02-09T06:43:03.838Z,81.38
2019-02-09T06:45:35.456Z,81.38
2019-02-09T06:48:22.267Z,80.85
2019-02-09T06:50:51.188Z,80.67
2019-02-09T06:53:19.827Z,80.67
2019-02-09T06:55:48.374Z,82.31
2019-02-09T06:58:16.936Z,81.66
2019-02-09T07:00:45.588Z,81.90
2019-02-09T07:03:14.602Z,81.26
2019-02-09T07:05:43.325Z,82.60
2019-02-09T07:08:12.036Z,82.56
2019-02-09T07:10:40.752Z,81.57
2019-02-09T07:13:09.373Z,82.20
2019-02-09T07:15:38.593Z,82.20
2019-02-09T07:21:48.120Z,84.28
2019-02-09T07:24:16.673Z,84.71
2019-02-09T07:26:45.264Z,84.71
2019-02-09T07:29:13.793Z,85.37
2019-02-09T07:31:42.357Z,85.39
2019-02-09T07:34:10.920Z,86.45
2019-02-09T07:36:39.554Z,86.77
2019-02-09T07:39:09.534Z,87.31
2019-02-09T07:41:38.163Z,86.63
2019-02-09T07:44:06.777Z,87.02
2019-02-09T07:46:35.355Z,86.58
2019-02-09T07:49:03.894Z,86.97
2019-02-09T07:51:34.370Z,86.74
2019-02-09T07:54:02.901Z,85.75
2019-02-09T07:56:31.465Z,85.90
2019-02-09T07:59:02.291Z,85.19
2019-02-09T08:01:31.245Z,84.67
2019-02-09T08:03:59.806Z,84.89
2019-02-09T08:06:28.377Z,84.35
2019-02-09T08:08:56.919Z,84.05
2019-02-09T08:11:25.559Z,84.23
2019-02-09T08:13:54.325Z,83.76
2019-02-09T08:16:22.878Z,84.33
2019-02-09T08:18:54.403Z,84.99
2019-02-09T08:21:22.966Z,84.20
2019-02-09T08:23:51.558Z,84.67
2019-02-09T08:26:20.581Z,84.55
2019-02-09T08:28:49.207Z,84.78
2019-02-09T08:31:17.780Z,84.74
2019-02-09T08:33:46.325Z,86.28
2019-02-09T08:36:14.963Z,87.14
2019-02-09T08:38:43.504Z,88.69
2019-02-09T08:41:12.072Z,90.44
2019-02-09T08:43:40.624Z,90.44
2019-02-09T08:46:09.328Z,90.99
2019-02-09T08:48:37.947Z,91.21
2019-02-09T08:51:08.935Z,90.94
2019-02-09T08:53:37.503Z,91.04
2019-02-09T08:56:06.272Z,91.16
2019-02-09T08:58:34.841Z,90.60
2019-02-09T09:01:03.838Z,90.16
2019-02-09T09:03:33.965Z,89.66
2019-02-09T09:06:05.717Z,89.34
2019-02-09T09:08:34.399Z,88.13
2019-02-09T09:11:03.016Z,87.89
2019-02-09T09:13:33.104Z,86.93
2019-02-09T09:16:02.025Z,87.50
2019-02-09T09:18:32.242Z,86.99
2019-02-09T09:21:04.237Z,87.10
2019-02-09T09:23:32.801Z,87.18
2019-02-09T09:26:01.354Z,87.07
2019-02-09T09:28:32.023Z,85.12
2019-02-09T09:31:02.279Z,86.05
2019-02-09T09:33:30.989Z,84.50
2019-02-09T09:35:59.624Z,84.92
2019-02-09T09:41:56.965Z,83.53
2019-02-09T09:44:25.545Z,82.12
2019-02-09T09:46:54.544Z,80.13
2019-02-09T09:49:23.094Z,80.44
2019-02-09T09:51:54.698Z,78.38
2019-02-09T09:54:23.621Z,76.66
2019-02-09T09:56:54.991Z,77.30
2019-02-09T09:59:24.035Z,75.90
2019-02-09T10:01:54.512Z,75.53
2019-02-09T10:04:23.074Z,73.15
2019-02-09T10:06:51.626Z,73.81
2019-02-09T10:09:20.203Z,72.46
2019-02-09T10:11:48.744Z,73.32
2019-02-09T10:14:17.307Z,71.51
2019-02-09T10:16:45.853Z,71.59
2019-02-09T10:19:14.429Z,72.32
2019-02-09T10:21:42.977Z,70.27
2019-02-09T10:24:11.626Z,69.52
2019-02-09T10:26:40.169Z,69.31
2019-02-09T10:29:08.739Z,69.17
2019-02-09T10:31:37.348Z,68.20
2019-02-09T10:34:06.327Z,67.89
2019-02-09T10:36:34.867Z,69.34
2019-02-09T10:39:04.008Z,68.97
2019-02-09T10:41:35.573Z,68.74
2019-02-09T10:44:04.679Z,66.19
2019-02-09T10:46:33.397Z,68.38
2019-02-09T10:49:04.735Z,67.64
2019-02-09T10:51:33.780Z,65.77
2019-02-09T10:54:04.167Z,66.58
2019-02-09T10:56:32.718Z,67.21
2019-02-09T10:59:04.130Z,66.65
2019-02-09T11:01:33.146Z,66.53
2019-02-09T11:04:03.224Z,65.98
2019-02-09T11:06:34.687Z,66.82
2019-02-09T11:09:04.716Z,66.97
2019-02-09T11:11:33.261Z,65.07
2019-02-09T11:14:04.937Z,66.38
2019-02-09T11:16:33.609Z,66.17
2019-02-09T11:19:02.186Z,64.89
2019-02-09T11:21:30.741Z,65.09
2019-02-09T11:23:59.725Z,64.10
2019-02-09T11:26:28.270Z,63.70
2019-02-09T11:28:56.825Z,63.56
2019-02-09T11:31:25.390Z,63.69
2019-02-09T11:33:53.957Z,62.32
2019-02-09T11:36:22.533Z,62.58
2019-02-09T11:38:51.077Z,63.06
2019-02-09T11:41:20.148Z,61.50
2019-02-09T11:43:50.139Z,63.25
2019-02-09T11:46:18.731Z,61.74
2019-02-09T11:48:47.279Z,61.57
2019-02-09T11:51:15.881Z,60.70
2019-02-09T11:53:44.427Z,60.33
2019-02-09T11:56:13.016Z,60.72
2019-02-09T11:58:41.906Z,60.16
2019-02-09T12:01:10.489Z,60.04
2019-02-09T12:03:39.063Z,60.88
2019-02-09T12:06:07.972Z,60.80
2019-02-09T12:08:36.516Z,60.07
2019-02-09T12:11:05.326Z,60.01
2019-02-09T12:13:33.891Z,61.73
2019-02-09T12:16:02.858Z,60.46
2019-02-09T12:18:33.416Z,60.66
2019-02-09T12:21:05.168Z,62.01
2019-02-09T12:23:33.721Z,61.43
2019-02-09T12:26:04.235Z,60.93
2019-02-09T12:28:32.787Z,61.16
2019-02-09T12:31:04.733Z,60.80
2019-02-09T12:33:33.338Z,61.77
2019-02-09T12:36:04.911Z,61.67
2019-02-09T12:38:33.454Z,61.17
2019-02-09T12:41:02.785Z,63.21
2019-02-09T12:43:31.934Z,61.66
2019-02-09T12:46:00.964Z,62.81
2019-02-09T12:48:29.605Z,62.09
2019-02-09T12:50:58.277Z,60.21
2019-02-09T12:53:26.822Z,62.03
2019-02-09T12:55:55.431Z,60.05
2019-02-09T12:58:24.055Z,59.62
2019-02-09T13:00:52.666Z,58.19
2019-02-09T13:03:31.038Z,57.87
2019-02-09T13:05:56.548Z,57.74
2019-02-09T13:08:26.711Z,57.00
2019-02-09T13:10:55.741Z,57.69
2019-02-09T13:13:24.448Z,59.04
2019-02-09T13:15:53.091Z,61.04
2019-02-09T13:18:21.952Z,62.13
2019-02-09T13:20:50.780Z,62.49
2019-02-09T13:23:20.174Z,63.60
2019-02-09T13:25:48.848Z,63.27
2019-02-09T13:28:17.410Z,62.50
2019-02-09T13:30:46.036Z,61.24
2019-02-09T13:33:14.601Z,62.24
2019-02-09T13:35:43.259Z,62.61
2019-02-09T13:38:12.004Z,63.54
2019-02-09T13:40:41.017Z,62.89
2019-02-09T13:43:09.672Z,62.86
2019-02-09T13:45:44.572Z,63.36
2019-02-09T13:48:13.286Z,63.11
2019-02-09T13:50:41.990Z,65.25
2019-02-09T13:53:10.675Z,63.79
2019-02-09T13:55:39.333Z,63.99
2019-02-09T13:58:07.973Z,64.68
2019-02-09T14:00:37.066Z,63.08
2019-02-09T14:03:07.488Z,59.95
2019-02-09T14:05:36.348Z,59.16
2019-02-09T14:08:06.151Z,59.24
2019-02-09T14:10:34.770Z,57.11
2019-02-09T14:13:03.482Z,56.22
2019-02-09T14:15:36.757Z,55.25
2019-02-09T14:18:08.469Z,56.86
2019-02-09T14:20:37.157Z,55.51
2019-02-09T14:23:06.527Z,56.60
2019-02-09T14:25:35.180Z,57.36
2019-02-09T14:28:06.827Z,56.74
2019-02-09T14:30:41.909Z,57.22
2019-02-09T14:33:12.451Z,56.62
2019-02-09T14:35:42.645Z,55.51
2019-02-09T14:38:11.616Z,56.62
2019-02-09T14:40:40.303Z,56.41
2019-02-09T14:43:09.809Z,56.06
2019-02-09T14:45:40.601Z,56.00
2019-02-09T14:48:09.536Z,56.77
2019-02-09T14:50:38.599Z,56.83
2019-02-09T14:53:08.615Z,58.12
2019-02-09T14:55:39.127Z,59.87
2019-02-09T14:58:08.645Z,59.37
2019-02-09T15:00:48.891Z,58.76
2019-02-09T15:03:25.691Z,58.28
2019-02-09T15:05:48.616Z,57.42
2019-02-09T15:08:17.267Z,57.63
2019-02-09T15:10:46.053Z,57.68
2019-02-09T15:13:14.857Z,57.14
2019-02-09T15:15:46.549Z,56.29
2019-02-09T15:18:15.422Z,57.06
2019-02-09T15:20:56.531Z,55.69
2019-02-09T15:23:25.109Z,55.88
2019-02-09T15:25:53.653Z,58.04
2019-02-09T15:28:22.216Z,57.51
2019-02-09T15:30:51.475Z,59.63
2019-02-09T15:33:21.153Z,56.71
2019-02-09T15:35:50.477Z,58.60
2019-02-09T15:38:21.116Z,59.16
2019-02-09T15:40:52.425Z,58.66
2019-02-09T15:43:21.623Z,58.61
2019-02-09T15:45:50.812Z,58.62
2019-02-09T15:48:20.356Z,58.28
2019-02-09T15:50:49.832Z,58.16
2019-02-09T15:53:19.028Z,58.42
2019-02-09T15:55:48.170Z,57.82
2019-02-09T15:58:17.491Z,58.62
2019-02-09T16:00:46.974Z,57.95
2019-02-09T16:03:16.400Z,59.43
2019-02-09T16:05:53.021Z,58.79
2019-02-09T16:08:22.201Z,60.00
2019-02-09T16:10:51.388Z,60.31
2019-02-09T16:13:20.187Z,60.40
2019-02-09T16:15:49.403Z,61.15
2019-02-09T16:18:18.536Z,61.44
2019-02-09T16:20:47.081Z,61.95
2019-02-09T16:23:15.658Z,61.79
2019-02-09T16:25:44.208Z,61.03
2019-02-09T16:28:12.782Z,61.98
2019-02-09T16:30:41.355Z,60.35
2019-02-09T16:33:09.943Z,61.48
2019-02-09T16:35:39.449Z,61.61
2019-02-09T16:38:09.217Z,61.47
2019-02-09T16:40:41.501Z,62.59
2019-02-09T16:43:10.272Z,61.78
2019-02-09T16:45:40.236Z,63.05
2019-02-09T16:48:11.136Z,62.93
2019-02-09T16:50:39.755Z,63.33
2019-02-09T16:53:08.369Z,65.38
2019-02-09T16:55:37.004Z,63.78
2019-02-09T16:58:07.071Z,65.02
2019-02-09T17:00:38.843Z,62.87
2019-02-09T17:03:09.438Z,63.79
2019-02-09T17:05:38.207Z,63.90
2019-02-09T17:08:07.107Z,63.22
2019-02-09T17:10:35.920Z,65.06
2019-02-09T17:13:05.628Z,64.59
2019-02-09T17:15:34.624Z,64.95
2019-02-09T17:18:03.271Z,65.05
2019-02-09T17:20:32.019Z,66.21
2019-02-09T17:23:02.206Z,65.09
2019-02-09T17:25:31.217Z,63.70
2019-02-09T17:27:59.782Z,63.85
2019-02-09T17:30:36.313Z,64.24
2019-02-09T17:33:05.802Z,63.72
2019-02-09T17:35:34.727Z,63.40
2019-02-09T17:38:03.269Z,62.67
2019-02-09T17:40:34.889Z,62.88
2019-02-09T17:43:03.433Z,62.95
2019-02-09T17:45:38.111Z,62.36
2019-02-09T17:48:06.735Z,61.56
2019-02-09T17:50:35.445Z,62.70
2019-02-09T17:53:04.667Z,62.25
2019-02-09T17:55:33.384Z,62.41
2019-02-09T17:58:05.481Z,63.31
2019-02-09T18:00:36.219Z,61.76
2019-02-09T18:03:04.919Z,62.12
2019-02-09T18:05:34.703Z,61.44
2019-02-09T18:08:03.961Z,61.09
2019-02-09T18:10:33.506Z,60.71
2019-02-09T18:13:02.294Z,64.98
2019-02-09T18:15:31.283Z,66.72
2019-02-09T18:18:00.118Z,67.66
2019-02-09T18:20:28.715Z,68.45
2019-02-09T18:22:57.395Z,68.97
2019-02-09T18:25:26.032Z,69.09
2019-02-09T18:27:54.643Z,69.18
2019-02-09T18:30:25.325Z,69.88
2019-02-09T18:32:54.397Z,70.16
2019-02-09T18:35:23.109Z,71.09
2019-02-09T18:37:51.749Z,71.04
2019-02-09T18:40:23.292Z,71.52
2019-02-09T18:42:51.913Z,71.40
2019-02-09T18:45:23.493Z,71.92
2019-02-09T18:47:52.139Z,72.25
2019-02-09T18:50:26.118Z,72.62
2019-02-09T18:52:55.835Z,72.90
2019-02-09T18:55:28.924Z,73.12
2019-02-09T18:57:58.420Z,73.73
2019-02-09T19:00:39.275Z,72.91
2019-02-09T19:03:09.430Z,73.18
2019-02-09T19:05:38.210Z,74.48
2019-02-09T19:08:08.287Z,73.61
2019-02-09T19:10:37.666Z,72.77
2019-02-09T19:13:06.685Z,72.78
2019-02-09T19:15:35.953Z,72.40
2019-02-09T19:18:06.148Z,71.74
2019-02-09T19:20:43.904Z,71.51
2019-02-09T19:23:12.442Z,71.58
2019-02-09T19:25:41.085Z,69.80
2019-02-09T19:28:09.698Z,70.22
2019-02-09T19:30:38.319Z,70.67
2019-02-09T19:33:08.128Z,71.25
2019-02-09T19:35:36.742Z,71.61
2019-02-09T19:38:05.756Z,70.98
2019-02-09T19:40:34.305Z,70.81
2019-02-09T19:43:03.199Z,70.93
2019-02-09T19:45:37.197Z,71.13
2019-02-09T19:48:08.312Z,71.55
2019-02-09T19:50:37.840Z,70.44
2019-02-09T19:53:07.779Z,71.28
2019-02-09T19:55:37.690Z,70.68
2019-02-09T19:58:07.661Z,71.48
2019-02-09T20:00:52.314Z,72.31
2019-02-09T20:03:23.287Z,72.09
2019-02-09T20:05:52.663Z,73.45
2019-02-09T20:08:22.047Z,72.51
2019-02-09T20:10:51.535Z,72.35
2019-02-09T20:13:21.929Z,72.21
2019-02-09T20:15:51.494Z,72.60
2019-02-09T20:18:21.833Z,72.27
2019-02-09T20:20:51.428Z,72.76
2019-02-09T20:23:22.346Z,72.71
2019-02-09T20:25:52.067Z,72.99
2019-02-09T20:28:22.550Z,73.29
2019-02-09T20:30:52.217Z,73.39
2019-02-09T20:33:24.364Z,74.05
2019-02-09T20:35:53.381Z,73.48
2019-02-09T20:38:22.022Z,73.64
2019-02-09T20:40:56.521Z,73.45
2019-02-09T20:43:26.141Z,72.98
2019-02-09T20:45:54.694Z,73.39
2019-02-09T20:48:23.283Z,73.78
2019-02-09T20:50:51.826Z,74.19
2019-02-09T20:53:21.813Z,74.07
2019-02-09T20:55:50.440Z,73.93
2019-02-09T20:58:19.594Z,74.34
2019-02-09T21:00:48.194Z,74.12
2019-02-09T21:03:17.114Z,74.37
2019-02-09T21:05:46.057Z,74.68
2019-02-09T21:08:14.623Z,74.87
2019-02-09T21:10:45.277Z,75.18
2019-02-09T21:13:13.928Z,76.03
2019-02-09T21:15:42.484Z,76.90
2019-02-09T21:18:11.049Z,76.96
2019-02-09T21:20:40.169Z,77.40
2019-02-09T21:23:08.902Z,77.75
2019-02-09T21:25:46.612Z,77.99
2019-02-09T21:28:15.635Z,77.80
2019-02-09T21:30:44.198Z,78.27
2019-02-09T21:33:13.152Z,78.32
2019-02-09T21:35:43.975Z,77.91
2019-02-09T21:38:12.583Z,78.35
2019-02-09T21:40:41.300Z,78.61
2019-02-09T21:43:09.926Z,78.98
2019-02-09T21:45:44.921Z,79.34
2019-02-09T21:48:08.776Z,79.35
2019-02-09T21:50:40.309Z,79.81
2019-02-09T21:53:09.256Z,80.84
2019-02-09T21:55:37.890Z,80.59
2019-02-09T21:58:08.686Z,80.85
2019-02-09T22:00:39.712Z,80.91
2019-02-09T22:03:09.686Z,81.39
2019-02-09T22:05:38.338Z,81.79
2019-02-09T22:08:08.929Z,81.52
2019-02-09T22:10:37.545Z,81.73
2019-02-09T22:13:06.256Z,81.73
2019-02-09T22:15:38.905Z,82.01
2019-02-09T22:18:06.475Z,81.92
2019-02-09T22:20:35.059Z,81.92
2019-02-09T22:23:03.772Z,82.19
2019-02-09T22:25:33.881Z,81.36
2019-02-09T22:28:03.559Z,81.36
2019-02-09T22:30:33.061Z,81.34
2019-02-09T22:33:05.029Z,81.07
2019-02-09T22:35:33.636Z,80.49
2019-02-09T22:38:04.150Z,79.77
2019-02-09T22:40:35.309Z,80.25
2019-02-09T22:43:05.444Z,79.73
2019-02-09T22:45:34.205Z,79.04
2019-02-09T22:48:02.927Z,78.82
2019-02-09T22:50:34.552Z,78.63
2019-02-09T22:53:03.168Z,79.31
2019-02-09T22:55:35.451Z,78.92
2019-02-09T22:58:04.805Z,78.71
2019-02-09T23:00:52.652Z,78.97
2019-02-09T23:03:28.119Z,78.83
2019-02-09T23:06:07.901Z,79.90
2019-02-09T23:08:34.064Z,79.86
2019-02-09T23:11:02.848Z,80.42
2019-02-09T23:13:31.394Z,80.72
2019-02-09T23:16:02.340Z,80.72
2019-02-09T23:18:30.910Z,80.90
2019-02-09T23:20:59.554Z,80.90
2019-02-09T23:23:28.106Z,80.88
2019-02-09T23:25:56.746Z,80.76
2019-02-09T23:28:25.296Z,80.40
2019-02-09T23:30:53.871Z,81.07
2019-02-09T23:33:23.589Z,80.55
2019-02-09T23:35:52.176Z,80.34
2019-02-09T23:38:20.735Z,80.24
2019-02-09T23:40:49.341Z,80.21
2019-02-09T23:43:17.934Z,79.81
2019-02-09T23:45:46.647Z,79.82
2019-02-09T23:48:15.608Z,80.10
2019-02-09T23:50:44.188Z,80.34
2019-02-09T23:53:12.741Z,80.31
2019-02-09T23:55:41.308Z,80.37
2019-02-09T23:58:09.852Z,80.33
